sensor_id;sensor_type;location;lat;lon;timestamp;temperature;humidity
8527;DHT22;4301;48.362;8.478;2022-10-31T00:00:08;7.90;99.90
8527;DHT22;4301;48.362;8.478;2022-10-31T00:02:37;7.90;99.90
8527;DHT22;4301;48.362;8.478;2022-10-31T00:05:06;7.90;99.90
8527;DHT22;4301;48.362;8.478;2022-10-31T00:07:33;7.90;99.90
8527;DHT22;4301;48.362;8.478;2022-10-31T00:10:00;7.80;99.90
8527;DHT22;4301;48.362;8.478;2022-10-31T00:12:27;7.80;99.90
8527;DHT22;4301;48.362;8.478;2022-10-31T00:14:54;7.80;99.90
8527;DHT22;4301;48.362;8.478;2022-10-31T00:17:20;7.80;99.90
8527;DHT22;4301;48.362;8.478;2022-10-31T00:19:47;7.80;99.90
8527;DHT22;4301;48.362;8.478;2022-10-31T00:22:17;7.70;99.90
8527;DHT22;4301;48.362;8.478;2022-10-31T00:24:44;7.70;99.90
8527;DHT22;4301;48.362;8.478;2022-10-31T00:27:11;7.70;99.90
8527;DHT22;4301;48.362;8.478;2022-10-31T00:29:38;7.60;99.90
8527;DHT22;4301;48.362;8.478;2022-10-31T00:32:04;7.60;99.90
8527;DHT22;4301;48.362;8.478;2022-10-31T00:34:31;7.60;99.90
8527;DHT22;4301;48.362;8.478;2022-10-31T00:36:58;7.60;99.90
8527;DHT22;4301;48.362;8.478;2022-10-31T00:39:26;7.60;99.90
8527;DHT22;4301;48.362;8.478;2022-10-31T00:41:53;7.60;99.90
8527;DHT22;4301;48.362;8.478;2022-10-31T00:44:20;7.60;99.90
8527;DHT22;4301;48.362;8.478;2022-10-31T00:46:47;7.60;99.90
8527;DHT22;4301;48.362;8.478;2022-10-31T00:49:14;7.60;99.90
8527;DHT22;4301;48.362;8.478;2022-10-31T00:51:41;7.60;99.90
8527;DHT22;4301;48.362;8.478;2022-10-31T00:54:08;7.60;99.90
8527;DHT22;4301;48.362;8.478;2022-10-31T00:56:37;7.50;99.90
8527;DHT22;4301;48.362;8.478;2022-10-31T00:59:03;7.50;99.90
8527;DHT22;4301;48.362;8.478;2022-10-31T01:01:30;7.50;99.90
8527;DHT22;4301;48.362;8.478;2022-10-31T01:03:57;7.40;99.90
8527;DHT22;4301;48.362;8.478;2022-10-31T01:06:24;7.40;99.90
8527;DHT22;4301;48.362;8.478;2022-10-31T01:08:51;7.40;99.90
8527;DHT22;4301;48.362;8.478;2022-10-31T01:11:20;7.40;99.90
8527;DHT22;4301;48.362;8.478;2022-10-31T01:13:51;7.40;99.90
8527;DHT22;4301;48.362;8.478;2022-10-31T01:16:20;7.40;99.90
8527;DHT22;4301;48.362;8.478;2022-10-31T01:18:48;7.40;99.90
8527;DHT22;4301;48.362;8.478;2022-10-31T01:21:17;7.40;99.90
8527;DHT22;4301;48.362;8.478;2022-10-31T01:23:45;7.40;99.90
8527;DHT22;4301;48.362;8.478;2022-10-31T01:26:14;7.40;99.90
8527;DHT22;4301;48.362;8.478;2022-10-31T01:28:44;7.30;99.90
8527;DHT22;4301;48.362;8.478;2022-10-31T01:31:14;7.30;99.90
8527;DHT22;4301;48.362;8.478;2022-10-31T01:33:41;7.30;99.90
8527;DHT22;4301;48.362;8.478;2022-10-31T01:36:14;7.40;99.90
8527;DHT22;4301;48.362;8.478;2022-10-31T01:38:42;7.20;99.90
8527;DHT22;4301;48.362;8.478;2022-10-31T01:41:10;7.10;99.90
8527;DHT22;4301;48.362;8.478;2022-10-31T01:43:48;7.10;99.90
8527;DHT22;4301;48.362;8.478;2022-10-31T01:46:21;7.10;99.90
8527;DHT22;4301;48.362;8.478;2022-10-31T01:48:48;7.10;99.90
8527;DHT22;4301;48.362;8.478;2022-10-31T01:51:17;7.00;99.90
8527;DHT22;4301;48.362;8.478;2022-10-31T01:53:48;7.00;99.90
8527;DHT22;4301;48.362;8.478;2022-10-31T01:56:16;7.00;99.90
8527;DHT22;4301;48.362;8.478;2022-10-31T01:58:45;7.00;99.90
8527;DHT22;4301;48.362;8.478;2022-10-31T02:01:13;7.00;99.90
8527;DHT22;4301;48.362;8.478;2022-10-31T02:03:43;6.90;99.90
8527;DHT22;4301;48.362;8.478;2022-10-31T02:06:16;7.00;99.90
8527;DHT22;4301;48.362;8.478;2022-10-31T02:08:46;6.90;99.90
8527;DHT22;4301;48.362;8.478;2022-10-31T02:11:13;6.90;99.90
8527;DHT22;4301;48.362;8.478;2022-10-31T02:13:40;6.90;99.90
8527;DHT22;4301;48.362;8.478;2022-10-31T02:16:09;6.90;99.90
8527;DHT22;4301;48.362;8.478;2022-10-31T02:18:36;6.90;99.90
8527;DHT22;4301;48.362;8.478;2022-10-31T02:21:10;6.80;99.90
8527;DHT22;4301;48.362;8.478;2022-10-31T02:24:09;6.90;99.90
8527;DHT22;4301;48.362;8.478;2022-10-31T02:26:57;6.90;99.90
8527;DHT22;4301;48.362;8.478;2022-10-31T02:30:03;6.90;99.90
8527;DHT22;4301;48.362;8.478;2022-10-31T02:32:38;6.90;99.90
8527;DHT22;4301;48.362;8.478;2022-10-31T02:35:11;6.90;99.90
8527;DHT22;4301;48.362;8.478;2022-10-31T02:37:45;6.70;99.90
8527;DHT22;4301;48.362;8.478;2022-10-31T02:40:22;6.70;99.90
8527;DHT22;4301;48.362;8.478;2022-10-31T02:42:57;6.70;99.90
8527;DHT22;4301;48.362;8.478;2022-10-31T02:45:29;6.70;99.90
8527;DHT22;4301;48.362;8.478;2022-10-31T02:48:03;6.60;99.90
8527;DHT22;4301;48.362;8.478;2022-10-31T02:50:37;6.60;99.90
8527;DHT22;4301;48.362;8.478;2022-10-31T02:53:06;6.60;99.90
8527;DHT22;4301;48.362;8.478;2022-10-31T02:55:53;6.60;99.90
8527;DHT22;4301;48.362;8.478;2022-10-31T02:58:22;6.60;99.90
8527;DHT22;4301;48.362;8.478;2022-10-31T03:03:58;6.60;99.90
8527;DHT22;4301;48.362;8.478;2022-10-31T03:06:30;6.60;99.90
8527;DHT22;4301;48.362;8.478;2022-10-31T03:09:05;6.60;99.90
8527;DHT22;4301;48.362;8.478;2022-10-31T03:11:43;6.70;99.90
8527;DHT22;4301;48.362;8.478;2022-10-31T03:14:17;6.70;99.90
8527;DHT22;4301;48.362;8.478;2022-10-31T03:16:48;6.70;99.90
8527;DHT22;4301;48.362;8.478;2022-10-31T03:19:19;6.60;99.90
8527;DHT22;4301;48.362;8.478;2022-10-31T03:21:52;6.60;99.90
8527;DHT22;4301;48.362;8.478;2022-10-31T03:24:24;6.60;99.90
8527;DHT22;4301;48.362;8.478;2022-10-31T03:26:55;6.50;99.90
8527;DHT22;4301;48.362;8.478;2022-10-31T03:29:27;6.50;99.90
8527;DHT22;4301;48.362;8.478;2022-10-31T03:31:58;6.50;99.90
8527;DHT22;4301;48.362;8.478;2022-10-31T03:34:28;6.50;99.90
8527;DHT22;4301;48.362;8.478;2022-10-31T03:37:00;6.60;99.90
8527;DHT22;4301;48.362;8.478;2022-10-31T03:39:28;6.60;99.90
8527;DHT22;4301;48.362;8.478;2022-10-31T03:42:00;6.60;99.90
8527;DHT22;4301;48.362;8.478;2022-10-31T03:44:29;6.50;99.90
8527;DHT22;4301;48.362;8.478;2022-10-31T03:46:57;6.60;99.90
8527;DHT22;4301;48.362;8.478;2022-10-31T03:49:24;6.60;99.90
8527;DHT22;4301;48.362;8.478;2022-10-31T03:51:57;6.60;99.90
8527;DHT22;4301;48.362;8.478;2022-10-31T03:54:28;6.60;99.90
8527;DHT22;4301;48.362;8.478;2022-10-31T03:56:58;6.60;99.90
8527;DHT22;4301;48.362;8.478;2022-10-31T03:59:32;6.50;99.90
8527;DHT22;4301;48.362;8.478;2022-10-31T04:02:03;6.50;99.90
8527;DHT22;4301;48.362;8.478;2022-10-31T04:04:33;6.60;99.90
8527;DHT22;4301;48.362;8.478;2022-10-31T04:07:03;6.60;99.90
8527;DHT22;4301;48.362;8.478;2022-10-31T04:09:35;6.60;99.90
8527;DHT22;4301;48.362;8.478;2022-10-31T04:12:04;6.50;99.90
8527;DHT22;4301;48.362;8.478;2022-10-31T04:14:33;6.50;99.90
8527;DHT22;4301;48.362;8.478;2022-10-31T04:17:02;6.50;99.90
8527;DHT22;4301;48.362;8.478;2022-10-31T04:19:32;6.50;99.90
8527;DHT22;4301;48.362;8.478;2022-10-31T04:21:59;6.40;99.90
8527;DHT22;4301;48.362;8.478;2022-10-31T04:24:28;6.40;99.90
8527;DHT22;4301;48.362;8.478;2022-10-31T04:26:55;6.40;99.90
8527;DHT22;4301;48.362;8.478;2022-10-31T04:29:22;6.40;99.90
8527;DHT22;4301;48.362;8.478;2022-10-31T04:31:48;6.30;99.90
8527;DHT22;4301;48.362;8.478;2022-10-31T04:34:15;6.30;99.90
8527;DHT22;4301;48.362;8.478;2022-10-31T04:36:42;6.30;99.90
8527;DHT22;4301;48.362;8.478;2022-10-31T04:39:09;6.20;99.90
8527;DHT22;4301;48.362;8.478;2022-10-31T04:41:38;6.20;99.90
8527;DHT22;4301;48.362;8.478;2022-10-31T04:44:05;6.20;99.90
8527;DHT22;4301;48.362;8.478;2022-10-31T04:46:32;6.20;99.90
8527;DHT22;4301;48.362;8.478;2022-10-31T04:48:59;6.20;99.90
8527;DHT22;4301;48.362;8.478;2022-10-31T04:51:26;6.20;99.90
8527;DHT22;4301;48.362;8.478;2022-10-31T04:53:53;6.20;99.90
8527;DHT22;4301;48.362;8.478;2022-10-31T04:56:20;6.10;99.90
8527;DHT22;4301;48.362;8.478;2022-10-31T04:58:48;6.10;99.90
8527;DHT22;4301;48.362;8.478;2022-10-31T05:01:15;6.00;99.90
8527;DHT22;4301;48.362;8.478;2022-10-31T05:03:42;6.00;99.90
8527;DHT22;4301;48.362;8.478;2022-10-31T05:06:09;6.10;99.90
8527;DHT22;4301;48.362;8.478;2022-10-31T05:08:36;6.10;99.90
8527;DHT22;4301;48.362;8.478;2022-10-31T05:11:04;6.10;99.90
8527;DHT22;4301;48.362;8.478;2022-10-31T05:13:31;6.10;99.90
8527;DHT22;4301;48.362;8.478;2022-10-31T05:15:59;6.10;99.90
8527;DHT22;4301;48.362;8.478;2022-10-31T05:18:26;6.00;99.90
8527;DHT22;4301;48.362;8.478;2022-10-31T05:20:53;6.00;99.90
8527;DHT22;4301;48.362;8.478;2022-10-31T05:23:20;6.00;99.90
8527;DHT22;4301;48.362;8.478;2022-10-31T05:25:47;5.90;99.90
8527;DHT22;4301;48.362;8.478;2022-10-31T05:28:14;5.90;99.90
8527;DHT22;4301;48.362;8.478;2022-10-31T05:30:41;5.90;99.90
8527;DHT22;4301;48.362;8.478;2022-10-31T05:33:09;5.90;99.90
8527;DHT22;4301;48.362;8.478;2022-10-31T05:35:36;5.90;99.90
8527;DHT22;4301;48.362;8.478;2022-10-31T05:38:03;5.90;99.90
8527;DHT22;4301;48.362;8.478;2022-10-31T05:40:30;5.80;99.90
8527;DHT22;4301;48.362;8.478;2022-10-31T05:42:57;5.80;99.90
8527;DHT22;4301;48.362;8.478;2022-10-31T05:45:24;5.70;99.90
8527;DHT22;4301;48.362;8.478;2022-10-31T05:47:53;5.80;99.90
8527;DHT22;4301;48.362;8.478;2022-10-31T05:50:24;5.80;99.90
8527;DHT22;4301;48.362;8.478;2022-10-31T05:52:55;5.80;99.90
8527;DHT22;4301;48.362;8.478;2022-10-31T05:55:23;5.80;99.90
8527;DHT22;4301;48.362;8.478;2022-10-31T05:57:51;5.90;99.90
8527;DHT22;4301;48.362;8.478;2022-10-31T06:00:18;5.90;99.90
8527;DHT22;4301;48.362;8.478;2022-10-31T06:02:45;5.80;99.90
8527;DHT22;4301;48.362;8.478;2022-10-31T06:05:13;5.80;99.90
8527;DHT22;4301;48.362;8.478;2022-10-31T06:07:41;5.90;99.90
8527;DHT22;4301;48.362;8.478;2022-10-31T06:10:08;5.90;99.90
8527;DHT22;4301;48.362;8.478;2022-10-31T06:12:36;5.90;99.90
8527;DHT22;4301;48.362;8.478;2022-10-31T06:15:04;5.90;99.90
8527;DHT22;4301;48.362;8.478;2022-10-31T06:17:32;5.90;99.90
8527;DHT22;4301;48.362;8.478;2022-10-31T06:19:59;5.90;99.90
8527;DHT22;4301;48.362;8.478;2022-10-31T06:22:26;5.90;99.90
8527;DHT22;4301;48.362;8.478;2022-10-31T06:24:54;5.80;99.90
8527;DHT22;4301;48.362;8.478;2022-10-31T06:27:21;5.80;99.90
8527;DHT22;4301;48.362;8.478;2022-10-31T06:29:49;5.80;99.90
8527;DHT22;4301;48.362;8.478;2022-10-31T06:32:16;5.80;99.90
8527;DHT22;4301;48.362;8.478;2022-10-31T06:34:44;5.90;99.90
8527;DHT22;4301;48.362;8.478;2022-10-31T06:37:14;6.00;99.90
8527;DHT22;4301;48.362;8.478;2022-10-31T06:39:41;6.10;99.90
8527;DHT22;4301;48.362;8.478;2022-10-31T06:42:10;6.20;99.90
8527;DHT22;4301;48.362;8.478;2022-10-31T06:44:37;6.20;99.90
8527;DHT22;4301;48.362;8.478;2022-10-31T06:47:05;6.30;99.90
8527;DHT22;4301;48.362;8.478;2022-10-31T06:49:32;6.40;99.90
8527;DHT22;4301;48.362;8.478;2022-10-31T06:51:59;6.50;99.90
8527;DHT22;4301;48.362;8.478;2022-10-31T06:54:26;6.60;99.90
8527;DHT22;4301;48.362;8.478;2022-10-31T06:56:53;6.70;99.90
8527;DHT22;4301;48.362;8.478;2022-10-31T06:59:21;6.70;99.90
8527;DHT22;4301;48.362;8.478;2022-10-31T07:01:49;7.00;99.90
8527;DHT22;4301;48.362;8.478;2022-10-31T07:04:16;7.10;99.90
8527;DHT22;4301;48.362;8.478;2022-10-31T07:06:43;7.20;99.90
8527;DHT22;4301;48.362;8.478;2022-10-31T07:09:10;7.30;99.90
8527;DHT22;4301;48.362;8.478;2022-10-31T07:11:37;7.40;99.90
8527;DHT22;4301;48.362;8.478;2022-10-31T07:14:05;7.50;99.90
8527;DHT22;4301;48.362;8.478;2022-10-31T07:16:33;7.40;99.90
8527;DHT22;4301;48.362;8.478;2022-10-31T07:19:00;7.50;99.90
8527;DHT22;4301;48.362;8.478;2022-10-31T07:21:27;7.70;99.90
8527;DHT22;4301;48.362;8.478;2022-10-31T07:23:54;7.80;99.90
8527;DHT22;4301;48.362;8.478;2022-10-31T07:26:21;8.00;99.90
8527;DHT22;4301;48.362;8.478;2022-10-31T07:28:48;8.10;99.90
8527;DHT22;4301;48.362;8.478;2022-10-31T07:31:15;8.20;99.90
8527;DHT22;4301;48.362;8.478;2022-10-31T07:33:43;8.40;99.90
8527;DHT22;4301;48.362;8.478;2022-10-31T07:36:10;8.60;99.70
8527;DHT22;4301;48.362;8.478;2022-10-31T07:38:37;8.90;90.20
8527;DHT22;4301;48.362;8.478;2022-10-31T07:41:04;9.00;76.10
8527;DHT22;4301;48.362;8.478;2022-10-31T07:43:31;9.20;64.60
8527;DHT22;4301;48.362;8.478;2022-10-31T07:45:58;9.30;34.90
8527;DHT22;4301;48.362;8.478;2022-10-31T07:48:26;9.50;17.20
8527;DHT22;4301;48.362;8.478;2022-10-31T07:50:54;9.60;1.00
8527;DHT22;4301;48.362;8.478;2022-10-31T07:53:22;9.50;1.80
8527;DHT22;4301;48.362;8.478;2022-10-31T07:55:50;9.50;1.00
8527;DHT22;4301;48.362;8.478;2022-10-31T07:58:17;9.30;7.60
8527;DHT22;4301;48.362;8.478;2022-10-31T08:00:47;9.30;32.60
8527;DHT22;4301;48.362;8.478;2022-10-31T08:03:15;9.70;11.40
8527;DHT22;4301;48.362;8.478;2022-10-31T08:05:42;10.10;1.00
8527;DHT22;4301;48.362;8.478;2022-10-31T08:08:13;10.60;1.00
8527;DHT22;4301;48.362;8.478;2022-10-31T08:10:40;11.20;1.00
8527;DHT22;4301;48.362;8.478;2022-10-31T08:13:09;11.50;1.00
8527;DHT22;4301;48.362;8.478;2022-10-31T08:15:36;11.90;99.90
8527;DHT22;4301;48.362;8.478;2022-10-31T08:18:06;11.70;99.90
8527;DHT22;4301;48.362;8.478;2022-10-31T08:20:33;12.00;1.00
8527;DHT22;4301;48.362;8.478;2022-10-31T08:23:01;12.30;99.90
8527;DHT22;4301;48.362;8.478;2022-10-31T08:25:31;12.90;99.90
8527;DHT22;4301;48.362;8.478;2022-10-31T08:27:58;13.30;99.90
8527;DHT22;4301;48.362;8.478;2022-10-31T08:30:27;13.60;99.90
8527;DHT22;4301;48.362;8.478;2022-10-31T08:32:59;13.90;1.00
8527;DHT22;4301;48.362;8.478;2022-10-31T08:35:27;14.10;1.00
8527;DHT22;4301;48.362;8.478;2022-10-31T08:37:56;13.80;1.00
8527;DHT22;4301;48.362;8.478;2022-10-31T08:40:26;13.90;99.90
8527;DHT22;4301;48.362;8.478;2022-10-31T08:43:02;14.10;99.90
8527;DHT22;4301;48.362;8.478;2022-10-31T08:45:31;14.30;99.90
8527;DHT22;4301;48.362;8.478;2022-10-31T08:48:03;15.00;99.90
8527;DHT22;4301;48.362;8.478;2022-10-31T08:50:32;15.00;1.00
8527;DHT22;4301;48.362;8.478;2022-10-31T08:53:02;15.00;1.00
8527;DHT22;4301;48.362;8.478;2022-10-31T08:55:32;15.30;99.90
8527;DHT22;4301;48.362;8.478;2022-10-31T08:58:03;15.00;99.90
8527;DHT22;4301;48.362;8.478;2022-10-31T09:00:30;15.00;99.90
8527;DHT22;4301;48.362;8.478;2022-10-31T09:02:58;15.00;1.00
8527;DHT22;4301;48.362;8.478;2022-10-31T09:05:25;14.80;44.50
8527;DHT22;4301;48.362;8.478;2022-10-31T09:07:56;14.70;1.00
8527;DHT22;4301;48.362;8.478;2022-10-31T09:10:24;14.90;1.00
8527;DHT22;4301;48.362;8.478;2022-10-31T09:12:55;14.90;99.90
8527;DHT22;4301;48.362;8.478;2022-10-31T09:15:23;15.10;1.00
8527;DHT22;4301;48.362;8.478;2022-10-31T09:17:50;15.00;1.00
8527;DHT22;4301;48.362;8.478;2022-10-31T09:20:18;14.70;99.90
8527;DHT22;4301;48.362;8.478;2022-10-31T09:22:46;14.60;99.90
8527;DHT22;4301;48.362;8.478;2022-10-31T09:25:19;14.60;55.80
8527;DHT22;4301;48.362;8.478;2022-10-31T09:27:47;15.00;99.90
8527;DHT22;4301;48.362;8.478;2022-10-31T09:30:14;15.30;12.60
8527;DHT22;4301;48.362;8.478;2022-10-31T09:32:42;15.50;54.70
8527;DHT22;4301;48.362;8.478;2022-10-31T09:35:09;15.70;1.00
8527;DHT22;4301;48.362;8.478;2022-10-31T09:37:36;15.90;60.00
8527;DHT22;4301;48.362;8.478;2022-10-31T09:40:04;15.90;1.00
8527;DHT22;4301;48.362;8.478;2022-10-31T09:42:45;15.70;99.90
8527;DHT22;4301;48.362;8.478;2022-10-31T09:45:21;15.70;1.00
8527;DHT22;4301;48.362;8.478;2022-10-31T09:48:04;15.90;99.90
8527;DHT22;4301;48.362;8.478;2022-10-31T09:50:40;15.80;1.00
8527;DHT22;4301;48.362;8.478;2022-10-31T09:53:21;15.80;1.00
8527;DHT22;4301;48.362;8.478;2022-10-31T09:55:51;15.60;1.00
8527;DHT22;4301;48.362;8.478;2022-10-31T09:58:20;15.80;99.90
8527;DHT22;4301;48.362;8.478;2022-10-31T10:00:52;16.10;1.00
8527;DHT22;4301;48.362;8.478;2022-10-31T10:03:29;16.30;1.00
8527;DHT22;4301;48.362;8.478;2022-10-31T10:06:06;16.50;99.90
8527;DHT22;4301;48.362;8.478;2022-10-31T10:08:35;16.60;18.70
8527;DHT22;4301;48.362;8.478;2022-10-31T10:11:14;16.60;1.00
8527;DHT22;4301;48.362;8.478;2022-10-31T10:14:12;16.80;99.90
8527;DHT22;4301;48.362;8.478;2022-10-31T10:17:04;17.10;1.00
8527;DHT22;4301;48.362;8.478;2022-10-31T10:19:50;17.30;1.00
8527;DHT22;4301;48.362;8.478;2022-10-31T10:22:24;17.70;99.90
8527;DHT22;4301;48.362;8.478;2022-10-31T10:25:02;17.80;1.00
8527;DHT22;4301;48.362;8.478;2022-10-31T10:27:42;17.90;99.90
8527;DHT22;4301;48.362;8.478;2022-10-31T10:30:15;17.80;17.20
8527;DHT22;4301;48.362;8.478;2022-10-31T10:32:44;17.60;1.00
8527;DHT22;4301;48.362;8.478;2022-10-31T10:35:21;17.50;99.90
8527;DHT22;4301;48.362;8.478;2022-10-31T10:37:51;17.40;99.90
8527;DHT22;4301;48.362;8.478;2022-10-31T10:40:22;17.20;99.90
8527;DHT22;4301;48.362;8.478;2022-10-31T10:42:59;17.20;1.00
8527;DHT22;4301;48.362;8.478;2022-10-31T10:45:48;17.30;1.00
8527;DHT22;4301;48.362;8.478;2022-10-31T10:48:44;17.60;99.90
8527;DHT22;4301;48.362;8.478;2022-10-31T10:51:20;17.70;99.90
8527;DHT22;4301;48.362;8.478;2022-10-31T10:54:08;17.90;1.00
8527;DHT22;4301;48.362;8.478;2022-10-31T10:56:51;18.10;99.90
8527;DHT22;4301;48.362;8.478;2022-10-31T10:59:20;18.30;1.00
8527;DHT22;4301;48.362;8.478;2022-10-31T11:01:49;18.50;99.90
8527;DHT22;4301;48.362;8.478;2022-10-31T11:04:30;18.50;99.90
8527;DHT22;4301;48.362;8.478;2022-10-31T11:07:04;18.80;99.90
8527;DHT22;4301;48.362;8.478;2022-10-31T11:09:32;18.90;1.00
8527;DHT22;4301;48.362;8.478;2022-10-31T11:12:05;18.90;99.90
8527;DHT22;4301;48.362;8.478;2022-10-31T11:14:37;18.80;1.00
8527;DHT22;4301;48.362;8.478;2022-10-31T11:17:16;18.80;1.00
8527;DHT22;4301;48.362;8.478;2022-10-31T11:19:44;18.80;1.00
8527;DHT22;4301;48.362;8.478;2022-10-31T11:22:17;18.70;1.00
8527;DHT22;4301;48.362;8.478;2022-10-31T11:24:44;18.60;1.00
8527;DHT22;4301;48.362;8.478;2022-10-31T11:27:15;18.50;1.00
8527;DHT22;4301;48.362;8.478;2022-10-31T11:29:43;18.70;1.00
8527;DHT22;4301;48.362;8.478;2022-10-31T11:32:20;18.90;27.70
8527;DHT22;4301;48.362;8.478;2022-10-31T11:34:49;18.90;99.90
8527;DHT22;4301;48.362;8.478;2022-10-31T11:37:21;18.90;1.00
8527;DHT22;4301;48.362;8.478;2022-10-31T11:39:52;18.90;99.90
8527;DHT22;4301;48.362;8.478;2022-10-31T11:42:21;18.80;99.90
8527;DHT22;4301;48.362;8.478;2022-10-31T11:44:50;18.70;1.00
8527;DHT22;4301;48.362;8.478;2022-10-31T11:47:25;18.60;99.90
8527;DHT22;4301;48.362;8.478;2022-10-31T11:49:52;18.50;1.00
8527;DHT22;4301;48.362;8.478;2022-10-31T11:52:24;18.50;1.00
8527;DHT22;4301;48.362;8.478;2022-10-31T11:54:55;18.50;31.60
8527;DHT22;4301;48.362;8.478;2022-10-31T11:57:23;18.50;99.90
8527;DHT22;4301;48.362;8.478;2022-10-31T11:59:51;18.50;99.90
8527;DHT22;4301;48.362;8.478;2022-10-31T12:02:19;18.40;99.90
8527;DHT22;4301;48.362;8.478;2022-10-31T12:04:51;18.20;99.90
8527;DHT22;4301;48.362;8.478;2022-10-31T12:07:19;18.20;1.00
8527;DHT22;4301;48.362;8.478;2022-10-31T12:09:47;18.20;1.00
8527;DHT22;4301;48.362;8.478;2022-10-31T12:12:40;18.30;1.00
8527;DHT22;4301;48.362;8.478;2022-10-31T12:15:30;18.30;1.00
8527;DHT22;4301;48.362;8.478;2022-10-31T12:18:13;18.40;99.90
8527;DHT22;4301;48.362;8.478;2022-10-31T12:20:55;18.50;99.90
8527;DHT22;4301;48.362;8.478;2022-10-31T12:23:31;18.80;99.90
8527;DHT22;4301;48.362;8.478;2022-10-31T12:26:10;19.10;99.90
8527;DHT22;4301;48.362;8.478;2022-10-31T12:28:54;19.50;99.90
8527;DHT22;4301;48.362;8.478;2022-10-31T12:31:43;20.40;1.00
8527;DHT22;4301;48.362;8.478;2022-10-31T12:34:48;21.00;1.00
8527;DHT22;4301;48.362;8.478;2022-10-31T12:37:34;21.60;99.90
8527;DHT22;4301;48.362;8.478;2022-10-31T12:40:18;22.10;99.90
8527;DHT22;4301;48.362;8.478;2022-10-31T12:42:59;21.80;99.90
8527;DHT22;4301;48.362;8.478;2022-10-31T12:45:36;21.50;99.90
8527;DHT22;4301;48.362;8.478;2022-10-31T12:48:24;21.50;99.90
8527;DHT22;4301;48.362;8.478;2022-10-31T12:50:58;21.20;99.90
8527;DHT22;4301;48.362;8.478;2022-10-31T12:53:40;21.10;99.90
8527;DHT22;4301;48.362;8.478;2022-10-31T12:56:24;21.20;99.90
8527;DHT22;4301;48.362;8.478;2022-10-31T12:59:06;21.70;99.90
8527;DHT22;4301;48.362;8.478;2022-10-31T13:01:38;22.30;99.90
8527;DHT22;4301;48.362;8.478;2022-10-31T13:04:13;22.40;99.90
8527;DHT22;4301;48.362;8.478;2022-10-31T13:06:46;22.50;99.90
8527;DHT22;4301;48.362;8.478;2022-10-31T13:09:18;23.70;99.90
8527;DHT22;4301;48.362;8.478;2022-10-31T13:11:48;24.60;99.90
8527;DHT22;4301;48.362;8.478;2022-10-31T13:14:25;25.10;99.90
8527;DHT22;4301;48.362;8.478;2022-10-31T13:16:55;25.10;99.90
8527;DHT22;4301;48.362;8.478;2022-10-31T13:19:25;26.10;99.90
8527;DHT22;4301;48.362;8.478;2022-10-31T13:21:58;27.20;94.60
8527;DHT22;4301;48.362;8.478;2022-10-31T13:24:32;27.70;84.90
8527;DHT22;4301;48.362;8.478;2022-10-31T13:27:03;28.40;73.20
8527;DHT22;4301;48.362;8.478;2022-10-31T13:29:42;28.80;53.00
8527;DHT22;4301;48.362;8.478;2022-10-31T13:32:10;28.80;36.20
8527;DHT22;4301;48.362;8.478;2022-10-31T13:34:42;28.60;29.10
8527;DHT22;4301;48.362;8.478;2022-10-31T13:37:16;28.10;31.70
8527;DHT22;4301;48.362;8.478;2022-10-31T13:40:12;27.60;26.10
8527;DHT22;4301;48.362;8.478;2022-10-31T13:42:50;27.70;32.80
8527;DHT22;4301;48.362;8.478;2022-10-31T13:45:23;28.20;30.50
8527;DHT22;4301;48.362;8.478;2022-10-31T13:47:58;28.00;25.20
8527;DHT22;4301;48.362;8.478;2022-10-31T13:50:27;28.30;23.70
8527;DHT22;4301;48.362;8.478;2022-10-31T13:53:13;27.90;22.20
8527;DHT22;4301;48.362;8.478;2022-10-31T13:55:46;26.50;16.40
8527;DHT22;4301;48.362;8.478;2022-10-31T13:58:23;25.70;26.40
8527;DHT22;4301;48.362;8.478;2022-10-31T14:01:15;25.00;30.80
8527;DHT22;4301;48.362;8.478;2022-10-31T14:03:44;24.70;43.40
8527;DHT22;4301;48.362;8.478;2022-10-31T14:06:12;23.80;77.40
8527;DHT22;4301;48.362;8.478;2022-10-31T14:08:42;22.90;84.60
8527;DHT22;4301;48.362;8.478;2022-10-31T14:11:20;22.50;99.90
8527;DHT22;4301;48.362;8.478;2022-10-31T14:13:49;22.10;99.90
8527;DHT22;4301;48.362;8.478;2022-10-31T14:16:22;21.50;99.90
8527;DHT22;4301;48.362;8.478;2022-10-31T14:18:58;21.40;99.90
8527;DHT22;4301;48.362;8.478;2022-10-31T14:21:28;21.40;99.90
8527;DHT22;4301;48.362;8.478;2022-10-31T14:23:56;22.10;99.90
8527;DHT22;4301;48.362;8.478;2022-10-31T14:26:34;23.50;99.90
8527;DHT22;4301;48.362;8.478;2022-10-31T14:29:24;24.70;75.70
8527;DHT22;4301;48.362;8.478;2022-10-31T14:31:55;24.30;82.90
8527;DHT22;4301;48.362;8.478;2022-10-31T14:34:26;22.80;99.90
8527;DHT22;4301;48.362;8.478;2022-10-31T14:39:57;21.40;99.90
8527;DHT22;4301;48.362;8.478;2022-10-31T14:42:40;21.10;99.90
8527;DHT22;4301;48.362;8.478;2022-10-31T14:45:18;21.00;99.90
8527;DHT22;4301;48.362;8.478;2022-10-31T14:47:59;20.90;99.90
8527;DHT22;4301;48.362;8.478;2022-10-31T14:50:47;20.70;1.00
8527;DHT22;4301;48.362;8.478;2022-10-31T14:53:19;20.00;1.00
8527;DHT22;4301;48.362;8.478;2022-10-31T14:55:50;18.90;99.90
8527;DHT22;4301;48.362;8.478;2022-10-31T14:58:21;18.50;99.90
8527;DHT22;4301;48.362;8.478;2022-10-31T15:00:51;18.40;1.00
8527;DHT22;4301;48.362;8.478;2022-10-31T15:03:26;18.30;1.00
8527;DHT22;4301;48.362;8.478;2022-10-31T15:05:55;18.40;99.90
8527;DHT22;4301;48.362;8.478;2022-10-31T15:08:33;18.40;1.00
8527;DHT22;4301;48.362;8.478;2022-10-31T15:11:06;18.40;1.00
8527;DHT22;4301;48.362;8.478;2022-10-31T15:13:41;18.30;99.90
8527;DHT22;4301;48.362;8.478;2022-10-31T15:16:11;18.10;1.00
8527;DHT22;4301;48.362;8.478;2022-10-31T15:18:49;18.00;1.00
8527;DHT22;4301;48.362;8.478;2022-10-31T15:21:18;17.70;1.00
8527;DHT22;4301;48.362;8.478;2022-10-31T15:23:46;17.50;1.00
8527;DHT22;4301;48.362;8.478;2022-10-31T15:26:17;17.30;1.00
8527;DHT22;4301;48.362;8.478;2022-10-31T15:28:44;17.20;99.90
8527;DHT22;4301;48.362;8.478;2022-10-31T15:31:16;17.00;99.90
8527;DHT22;4301;48.362;8.478;2022-10-31T15:33:47;16.90;1.00
8527;DHT22;4301;48.362;8.478;2022-10-31T15:36:20;16.70;1.00
8527;DHT22;4301;48.362;8.478;2022-10-31T15:38:48;16.50;1.00
8527;DHT22;4301;48.362;8.478;2022-10-31T15:41:27;16.50;1.00
8527;DHT22;4301;48.362;8.478;2022-10-31T15:43:57;16.50;1.00
8527;DHT22;4301;48.362;8.478;2022-10-31T15:46:25;16.30;1.00
8527;DHT22;4301;48.362;8.478;2022-10-31T15:48:55;16.00;1.00
8527;DHT22;4301;48.362;8.478;2022-10-31T15:51:27;15.80;1.00
8527;DHT22;4301;48.362;8.478;2022-10-31T15:53:55;15.60;1.00
8527;DHT22;4301;48.362;8.478;2022-10-31T15:56:25;15.40;1.00
8527;DHT22;4301;48.362;8.478;2022-10-31T15:58:56;15.30;1.00
8527;DHT22;4301;48.362;8.478;2022-10-31T16:01:25;15.30;1.00
8527;DHT22;4301;48.362;8.478;2022-10-31T16:04:04;15.10;1.00
8527;DHT22;4301;48.362;8.478;2022-10-31T16:06:33;15.00;1.00
8527;DHT22;4301;48.362;8.478;2022-10-31T16:09:00;14.90;1.00
8527;DHT22;4301;48.362;8.478;2022-10-31T16:11:33;14.80;1.00
8527;DHT22;4301;48.362;8.478;2022-10-31T16:14:03;14.80;1.00
8527;DHT22;4301;48.362;8.478;2022-10-31T16:16:33;14.60;10.90
8527;DHT22;4301;48.362;8.478;2022-10-31T16:19:05;14.40;45.40
8527;DHT22;4301;48.362;8.478;2022-10-31T16:21:35;14.30;56.20
8527;DHT22;4301;48.362;8.478;2022-10-31T16:24:05;14.30;47.90
8527;DHT22;4301;48.362;8.478;2022-10-31T16:26:38;14.20;58.30
8527;DHT22;4301;48.362;8.478;2022-10-31T16:29:27;14.10;68.50
8527;DHT22;4301;48.362;8.478;2022-10-31T16:31:54;14.10;68.30
8527;DHT22;4301;48.362;8.478;2022-10-31T16:34:23;14.10;76.10
8527;DHT22;4301;48.362;8.478;2022-10-31T16:36:50;14.00;81.50
8527;DHT22;4301;48.362;8.478;2022-10-31T16:39:17;13.90;90.40
8527;DHT22;4301;48.362;8.478;2022-10-31T16:41:46;13.80;93.40
8527;DHT22;4301;48.362;8.478;2022-10-31T16:44:18;13.80;91.90